createdAt,value
2022-10-29T00:01:20.206Z,98477.72
2022-10-29T00:03:48.722Z,98479.88
2022-10-29T00:06:15.826Z,98475.28
2022-10-29T00:08:42.924Z,98477.69
2022-10-29T00:11:12.505Z,98473.63
2022-10-29T00:13:40.251Z,98469.84
2022-10-29T00:16:09.113Z,98472.28
2022-10-29T00:18:36.317Z,98472.56
2022-10-29T00:21:06.783Z,98466.09
2022-10-29T00:23:34.482Z,98468.28
2022-10-29T00:26:02.654Z,98474.78
2022-10-29T00:28:30.164Z,98476.94
2022-10-29T00:30:57.287Z,98470.19
2022-10-29T00:33:24.405Z,98472.91
2022-10-29T00:35:55.289Z,98477.22
2022-10-29T00:38:23.858Z,98472.59
2022-10-29T00:40:51.014Z,98470.94
2022-10-29T00:43:21.241Z,98462.84
2022-10-29T00:45:52.913Z,98466.09
2022-10-29T00:48:21.779Z,98472.28
2022-10-29T00:50:49.422Z,98472.84
2022-10-29T00:53:21.858Z,98468.75
2022-10-29T00:55:50.441Z,98480.09
2022-10-29T00:58:18.865Z,98482.50
2022-10-29T01:00:48.222Z,98485.75
2022-10-29T01:03:15.346Z,98492.75
2022-10-29T01:05:44.973Z,98483.59
2022-10-29T01:08:13.995Z,98485.25
2022-10-29T01:10:53.670Z,98479.59
2022-10-29T01:13:33.294Z,98482.81
2022-10-29T01:16:11.814Z,98474.47
2022-10-29T01:18:47.719Z,98471.78
2022-10-29T01:21:40.324Z,98477.16
2022-10-29T01:24:44.503Z,98481.25
2022-10-29T01:27:51.265Z,98477.97
2022-10-29T01:30:34.190Z,98472.28
2022-10-29T01:33:10.805Z,98464.16
2022-10-29T01:35:47.564Z,98482.00
2022-10-29T01:38:22.904Z,98477.66
2022-10-29T01:40:59.365Z,98474.97
2022-10-29T01:43:32.916Z,98479.25
2022-10-29T01:46:06.177Z,98480.06
2022-10-29T01:48:39.604Z,98480.66
2022-10-29T01:51:12.950Z,98494.09
2022-10-29T01:53:41.341Z,98488.38
2022-10-29T01:56:08.451Z,98482.75
2022-10-29T01:58:36.003Z,98486.84
2022-10-29T02:01:11.154Z,98481.75
2022-10-29T02:03:48.987Z,98476.88
2022-10-29T02:06:27.277Z,98472.84
2022-10-29T02:09:03.857Z,98467.72
2022-10-29T02:11:40.057Z,98469.34
2022-10-29T02:14:15.335Z,98459.06
2022-10-29T02:16:43.083Z,98465.53
2022-10-29T02:19:11.542Z,98460.94
2022-10-29T02:21:38.794Z,98456.88
2022-10-29T02:24:06.813Z,98461.47
2022-10-29T02:26:34.170Z,98471.44
2022-10-29T02:29:01.295Z,98474.94
2022-10-29T02:31:28.402Z,98467.94
2022-10-29T02:33:55.617Z,98457.69
2022-10-29T02:36:24.072Z,98452.81
2022-10-29T02:38:51.159Z,98450.66
2022-10-29T02:41:18.249Z,98443.91
2022-10-29T02:43:45.359Z,98434.16
2022-10-29T02:46:14.532Z,98425.84
2022-10-29T02:48:41.720Z,98431.53
2022-10-29T02:51:09.137Z,98427.75
2022-10-29T02:53:37.745Z,98430.19
2022-10-29T02:56:06.206Z,98425.06
2022-10-29T02:58:34.078Z,98424.81
2022-10-29T03:01:01.651Z,98420.75
2022-10-29T03:03:28.882Z,98421.59
2022-10-29T03:05:56.335Z,98425.06
2022-10-29T03:08:23.454Z,98428.56
2022-10-29T03:10:51.890Z,98430.69
2022-10-29T03:13:19.000Z,98431.78
2022-10-29T03:15:46.109Z,98431.53
2022-10-29T03:18:13.244Z,98434.75
2022-10-29T03:20:40.417Z,98443.66
2022-10-29T03:23:07.750Z,98435.25
2022-10-29T03:25:34.844Z,98447.66
2022-10-29T03:28:03.389Z,98450.63
2022-10-29T03:30:30.501Z,98436.88
2022-10-29T03:32:57.928Z,98434.44
2022-10-29T03:35:25.260Z,98424.69
2022-10-29T03:37:52.991Z,98431.72
2022-10-29T03:40:20.113Z,98432.56
2022-10-29T03:42:47.227Z,98428.03
2022-10-29T03:45:16.227Z,98432.34
2022-10-29T03:47:43.350Z,98430.16
2022-10-29T03:50:10.604Z,98426.13
2022-10-29T03:52:37.701Z,98427.47
2022-10-29T03:55:06.041Z,98412.91
2022-10-29T03:57:33.177Z,98443.13
2022-10-29T04:00:00.394Z,98446.09
2022-10-29T04:02:29.019Z,98454.44
2022-10-29T04:04:56.280Z,98445.75
2022-10-29T04:07:23.375Z,98439.31
2022-10-29T04:09:50.467Z,98442.00
2022-10-29T04:12:17.845Z,98455.75
2022-10-29T04:14:45.692Z,98456.84
2022-10-29T04:17:13.176Z,98443.84
2022-10-29T04:19:41.657Z,98456.25
2022-10-29T04:28:41.436Z,98459.75
2022-10-29T04:30:30.160Z,98459.75
2022-10-29T04:32:58.371Z,98450.63
2022-10-29T04:35:28.352Z,98453.88
2022-10-29T04:37:55.622Z,98450.94
2022-10-29T04:40:23.003Z,98454.97
2022-10-29T04:42:50.444Z,98443.94
2022-10-29T04:45:18.010Z,98398.75
2022-10-29T04:47:45.110Z,98440.91
2022-10-29T04:50:12.489Z,98459.25
2022-10-29T04:52:41.146Z,98456.56
2022-10-29T04:55:08.825Z,98454.63
2022-10-29T04:57:35.893Z,98454.63
2022-10-29T05:00:03.664Z,98454.63
2022-10-29T05:02:30.761Z,98450.81
2022-10-29T05:04:57.857Z,98454.91
2022-10-29T05:07:24.965Z,98449.25
2022-10-29T05:09:53.406Z,98445.50
2022-10-29T05:12:20.490Z,98449.59
2022-10-29T05:14:47.726Z,98445.03
2022-10-29T05:17:14.819Z,98446.69
2022-10-29T05:19:41.945Z,98455.06
2022-10-29T05:22:09.037Z,98452.38
2022-10-29T05:24:36.113Z,98456.66
2022-10-29T05:27:06.843Z,98452.91
2022-10-29T05:29:33.957Z,98446.97
2022-10-29T05:32:01.076Z,98455.63
2022-10-29T05:34:28.165Z,98452.09
2022-10-29T05:36:55.318Z,98454.53
2022-10-29T05:39:22.406Z,98452.91
2022-10-29T05:41:49.481Z,98449.13
2022-10-29T05:44:17.972Z,98449.13
2022-10-29T05:46:48.519Z,98451.56
2022-10-29T05:49:15.602Z,98461.81
2022-10-29T05:51:42.705Z,98455.84
2022-10-29T05:54:09.818Z,98454.47
2022-10-29T05:56:36.900Z,98455.84
2022-10-29T05:59:04.013Z,98453.97
2022-10-29T06:01:32.544Z,98456.38
2022-10-29T06:03:59.686Z,98445.84
2022-10-29T06:06:27.193Z,98456.66
2022-10-29T06:08:54.326Z,98461.78
2022-10-29T06:11:21.419Z,98467.19
2022-10-29T06:13:48.531Z,98447.94
2022-10-29T06:16:15.643Z,98476.06
2022-10-29T06:18:44.066Z,98471.16
2022-10-29T06:21:11.337Z,98476.06
2022-10-29T06:23:38.475Z,98482.84
2022-10-29T06:26:05.650Z,98499.03
2022-10-29T06:28:34.765Z,98498.75
2022-10-29T06:31:02.192Z,98490.91
2022-10-29T06:33:29.329Z,98500.63
2022-10-29T06:35:59.892Z,98502.25
2022-10-29T06:38:26.969Z,98504.69
2022-10-29T06:40:54.089Z,98501.16
2022-10-29T06:43:21.253Z,98499.78
2022-10-29T06:45:48.786Z,98497.94
2022-10-29T06:48:19.169Z,98493.84
2022-10-29T06:50:49.217Z,98495.19
2022-10-29T06:53:17.829Z,98498.69
2022-10-29T06:55:45.054Z,98499.47
2022-10-29T06:58:13.942Z,98505.13
2022-10-29T07:00:42.064Z,98506.75
2022-10-29T07:03:11.789Z,98508.94
2022-10-29T07:05:39.003Z,98507.84
2022-10-29T07:08:06.214Z,98512.19
2022-10-29T07:10:35.045Z,98511.13
2022-10-29T07:13:02.549Z,98505.19
2022-10-29T07:15:31.063Z,98503.31
2022-10-29T07:17:59.662Z,98503.03
2022-10-29T07:20:27.429Z,98503.03
2022-10-29T07:22:54.510Z,98507.91
2022-10-29T07:25:21.631Z,98514.41
2022-10-29T07:27:50.212Z,98510.06
2022-10-29T07:30:17.917Z,98510.06
2022-10-29T07:32:45.116Z,98512.78
2022-10-29T07:35:12.351Z,98518.16
2022-10-29T07:37:39.441Z,98519.50
2022-10-29T07:40:08.045Z,98533.81
2022-10-29T07:42:35.261Z,98522.97
2022-10-29T07:45:04.412Z,98516.22
2022-10-29T07:47:31.505Z,98516.75
2022-10-29T07:49:58.665Z,98515.41
2022-10-29T07:52:25.740Z,98515.41
2022-10-29T07:54:52.825Z,98522.97
2022-10-29T07:57:19.925Z,98512.19
2022-10-29T07:59:47.016Z,98504.94
2022-10-29T08:02:15.499Z,98504.09
2022-10-29T08:04:42.642Z,98511.34
2022-10-29T08:07:09.725Z,98525.91
2022-10-29T08:09:36.789Z,98526.16
2022-10-29T08:12:04.226Z,98526.50
2022-10-29T08:14:31.293Z,98542.25
2022-10-29T08:16:58.372Z,98533.44
2022-10-29T08:19:26.846Z,98525.88
2022-10-29T08:21:53.936Z,98516.28
2022-10-29T08:24:21.018Z,98515.94
2022-10-29T08:26:49.777Z,98518.97
2022-10-29T08:29:16.928Z,98514.00
2022-10-29T08:31:44.038Z,98511.97
2022-10-29T08:34:11.511Z,98508.09
2022-10-29T08:36:41.501Z,98509.19
2022-10-29T08:39:08.669Z,98513.28
2022-10-29T08:41:46.166Z,98518.63
2022-10-29T08:44:48.400Z,98521.88
2022-10-29T08:47:18.560Z,98523.28
2022-10-29T08:49:49.793Z,98519.53
2022-10-29T08:52:23.191Z,98518.63
2022-10-29T08:54:59.590Z,98509.75
2022-10-29T08:57:31.880Z,98515.38
2022-10-29T09:00:05.833Z,98504.16
2022-10-29T09:02:33.206Z,98508.09
2022-10-29T09:05:00.583Z,98505.34
2022-10-29T09:07:52.285Z,98505.16
2022-10-29T09:10:27.819Z,98511.28
2022-10-29T09:13:11.594Z,98504.94
2022-10-29T09:15:56.370Z,98513.28
2022-10-29T09:18:33.278Z,98506.34
2022-10-29T09:21:08.343Z,98460.50
2022-10-29T09:24:02.146Z,98507.00
2022-10-29T09:26:32.244Z,98502.16
2022-10-29T09:29:18.867Z,98507.78
2022-10-29T09:31:50.251Z,98508.00
2022-10-29T09:34:28.724Z,98509.88
2022-10-29T09:36:56.565Z,98514.38
2022-10-29T09:39:34.251Z,98503.09
2022-10-29T09:42:08.508Z,98497.41
2022-10-29T09:44:38.906Z,98510.19
2022-10-29T09:47:17.592Z,98513.50
2022-10-29T09:50:05.210Z,98510.28
2022-10-29T09:52:39.444Z,98508.97
2022-10-29T09:55:17.119Z,98504.91
2022-10-29T09:57:44.436Z,98507.63
2022-10-29T10:00:18.711Z,98498.47
2022-10-29T10:02:52.499Z,98505.22
2022-10-29T10:05:24.949Z,98510.38
2022-10-29T10:08:07.501Z,98504.19
2022-10-29T10:10:39.258Z,98497.50
2022-10-29T10:13:06.693Z,98495.59
2022-10-29T10:15:35.490Z,98498.25
2022-10-29T10:18:04.975Z,98496.38
2022-10-29T10:20:35.089Z,98492.91
2022-10-29T10:23:17.898Z,98480.81
2022-10-29T10:25:46.412Z,98485.94
2022-10-29T10:28:18.246Z,98486.97
2022-10-29T10:30:46.010Z,98489.75
2022-10-29T10:33:24.726Z,98475.13
2022-10-29T10:35:54.180Z,98486.22
2022-10-29T10:38:21.612Z,98477.94
2022-10-29T10:40:57.278Z,98470.66
2022-10-29T10:43:25.894Z,98463.09
2022-10-29T10:45:57.046Z,98462.31
2022-10-29T10:48:30.993Z,98454.72
2022-10-29T10:51:17.978Z,98449.63
2022-10-29T10:53:44.897Z,98449.13
2022-10-29T10:56:21.250Z,98445.66
2022-10-29T10:58:55.810Z,98450.25
2022-10-29T11:01:29.706Z,98437.53
2022-10-29T11:04:05.775Z,98437.75
2022-10-29T11:06:36.535Z,98437.25
2022-10-29T11:09:11.950Z,98435.84
2022-10-29T11:11:45.441Z,98431.59
2022-10-29T11:14:15.411Z,98431.59
2022-10-29T11:16:48.561Z,98423.50
2022-10-29T11:19:23.453Z,98429.81
2022-10-29T11:22:01.133Z,98427.63
2022-10-29T11:24:38.716Z,98418.91
2022-10-29T11:27:25.337Z,98416.44
2022-10-29T11:30:01.301Z,98423.75
2022-10-29T11:32:40.520Z,98427.50
2022-10-29T11:35:11.405Z,98422.97
2022-10-29T11:37:45.859Z,98420.25
2022-10-29T11:40:15.713Z,98421.63
2022-10-29T11:42:44.336Z,98417.00
2022-10-29T11:45:14.509Z,98414.38
2022-10-29T11:48:04.570Z,98412.97
2022-10-29T11:50:42.010Z,98399.56
2022-10-29T11:53:30.153Z,98402.53
2022-10-29T11:56:06.930Z,98401.50
2022-10-29T11:58:41.508Z,98398.28
2022-10-29T12:01:19.759Z,98395.56
2022-10-29T12:03:58.181Z,98385.88
2022-10-29T12:06:34.725Z,98391.25
2022-10-29T12:09:20.601Z,98331.66
2022-10-29T12:11:57.182Z,98377.06
2022-10-29T12:14:32.023Z,98373.88
2022-10-29T12:17:09.271Z,98371.44
2022-10-29T12:19:47.219Z,98376.84
2022-10-29T12:22:28.430Z,98377.38
2022-10-29T12:25:17.957Z,98375.50
2022-10-29T12:27:56.800Z,98368.75
2022-10-29T12:30:26.465Z,98365.25
2022-10-29T12:33:04.639Z,98372.00
2022-10-29T12:35:40.779Z,98365.53
2022-10-29T12:38:21.766Z,98360.63
2022-10-29T12:40:53.220Z,98359.59
2022-10-29T12:43:25.978Z,98366.59
2022-10-29T12:46:19.521Z,98366.31
2022-10-29T12:48:55.536Z,98357.16
2022-10-29T12:51:29.566Z,98361.16
2022-10-29T12:54:06.252Z,98358.72
2022-10-29T12:56:33.642Z,98360.31
2022-10-29T12:59:31.832Z,98354.16
2022-10-29T13:02:45.300Z,98350.06
2022-10-29T13:05:15.825Z,98340.66
2022-10-29T13:08:28.393Z,98340.09
2022-10-29T13:10:56.921Z,98329.84
2022-10-29T13:13:37.265Z,98329.31
2022-10-29T13:16:13.118Z,98328.47
2022-10-29T13:18:49.624Z,98326.84
2022-10-29T13:21:52.431Z,98319.56
2022-10-29T13:24:20.338Z,98321.75
2022-10-29T13:27:03.633Z,98319.03
2022-10-29T13:29:48.137Z,98311.75
2022-10-29T13:32:31.108Z,98306.34
2022-10-29T13:35:00.936Z,98313.91
2022-10-29T13:37:55.557Z,98314.44
2022-10-29T13:40:56.070Z,98325.75
2022-10-29T13:43:24.163Z,98323.91
2022-10-29T13:46:01.131Z,98312.25
2022-10-29T13:48:30.550Z,98316.59
2022-10-29T13:51:03.376Z,98299.88
2022-10-29T13:53:38.409Z,98303.13
2022-10-29T13:56:10.728Z,98300.97
2022-10-29T13:58:42.933Z,98305.53
2022-10-29T14:01:16.889Z,98299.06
2022-10-29T14:03:52.983Z,98299.88
2022-10-29T14:06:25.962Z,98296.06
2022-10-29T14:08:58.733Z,98293.66
2022-10-29T14:11:30.549Z,98290.97
2022-10-29T14:13:59.644Z,98292.84
2022-10-29T14:16:29.079Z,98290.41
2022-10-29T14:18:56.214Z,98286.91
2022-10-29T14:21:26.611Z,98286.63
2022-10-29T14:23:58.824Z,98288.28
2022-10-29T14:26:27.027Z,98288.53
2022-10-29T14:28:54.193Z,98286.09
2022-10-29T14:31:22.665Z,98281.50
2022-10-29T14:33:55.087Z,98279.09
2022-10-29T14:36:30.590Z,98276.66
2022-10-29T14:39:02.282Z,98277.22
2022-10-29T14:41:30.590Z,98278.78
2022-10-29T14:44:05.469Z,98276.91
2022-10-29T14:46:34.970Z,98272.88
2022-10-29T14:49:13.140Z,98276.63
2022-10-29T14:51:49.228Z,98276.34
2022-10-29T14:54:21.888Z,98279.53
2022-10-29T14:56:54.053Z,98283.34
2022-10-29T14:59:28.164Z,98274.72
2022-10-29T15:02:05.744Z,98275.28
2022-10-29T15:04:49.468Z,98275.56
2022-10-29T15:07:30.027Z,98273.44
2022-10-29T15:10:20.016Z,98276.69
2022-10-29T15:12:48.585Z,98277.75
2022-10-29T15:15:25.333Z,98280.19
2022-10-29T15:17:56.870Z,98268.59
2022-10-29T15:20:29.187Z,98275.59
2022-10-29T15:22:59.407Z,98276.13
2022-10-29T15:25:30.802Z,98273.41
2022-10-29T15:27:58.995Z,98278.00
2022-10-29T15:30:32.972Z,98279.34
2022-10-29T15:33:01.919Z,98273.13
2022-10-29T15:35:29.503Z,98282.03
2022-10-29T15:37:57.962Z,98280.41
2022-10-29T15:40:25.499Z,98268.00
2022-10-29T15:42:53.713Z,98275.00
2022-10-29T15:45:26.867Z,98294.41
2022-10-29T15:47:58.518Z,98279.31
2022-10-29T15:50:32.146Z,98261.44
2022-10-29T15:53:01.737Z,98276.81
2022-10-29T15:55:30.819Z,98288.09
2022-10-29T15:58:03.735Z,98280.56
2022-10-29T16:00:32.112Z,98278.41
2022-10-29T16:03:06.592Z,98282.47
2022-10-29T16:05:33.717Z,98293.75
2022-10-29T16:08:02.454Z,98287.03
2022-10-29T16:10:29.868Z,98271.41
2022-10-29T16:12:57.950Z,98271.66
2022-10-29T16:17:57.487Z,98282.31
2022-10-29T16:20:24.781Z,98278.28
2022-10-29T16:22:52.620Z,98265.81
2022-10-29T16:25:26.993Z,98259.16
2022-10-29T16:27:55.246Z,98276.13
2022-10-29T16:30:23.871Z,98270.19
2022-10-29T16:32:51.525Z,98258.16
2022-10-29T16:35:21.310Z,98261.50
2022-10-29T16:37:49.074Z,98265.00
2022-10-29T16:40:16.808Z,98266.09
2022-10-29T16:42:45.849Z,98264.50
2022-10-29T16:45:16.014Z,98258.56
2022-10-29T16:47:43.317Z,98264.78
2022-10-29T16:50:16.317Z,98263.19
2022-10-29T16:52:43.843Z,98271.81
2022-10-29T16:55:11.298Z,98269.09
2022-10-29T16:57:39.173Z,98279.34
2022-10-29T17:00:09.155Z,98273.69
2022-10-29T17:02:36.980Z,98278.84
2022-10-29T17:05:04.513Z,98276.38
2022-10-29T17:07:31.630Z,98279.63
2022-10-29T17:09:58.735Z,98272.06
2022-10-29T17:12:25.825Z,98272.06
2022-10-29T17:14:52.979Z,98276.13
2022-10-29T17:17:21.447Z,98279.09
2022-10-29T17:19:48.561Z,98281.25
2022-10-29T17:22:15.704Z,98282.88
2022-10-29T17:24:43.586Z,98278.81
2022-10-29T17:27:10.944Z,98282.59
2022-10-29T17:29:38.610Z,98279.91
2022-10-29T17:32:07.160Z,98280.97
2022-10-29T17:34:35.749Z,98283.41
2022-10-29T17:37:03.203Z,98278.00
2022-10-29T17:39:30.291Z,98293.13
2022-10-29T17:41:57.513Z,98286.09
2022-10-29T17:44:24.815Z,98289.34
2022-10-29T17:46:52.098Z,98284.81
2022-10-29T17:49:19.237Z,98285.06
2022-10-29T17:51:47.919Z,98283.19
2022-10-29T17:54:15.910Z,98293.69
2022-10-29T17:56:43.025Z,98283.72
2022-10-29T17:59:10.218Z,98290.72
2022-10-29T18:01:37.384Z,98291.78
2022-10-29T18:04:05.651Z,98289.09
2022-10-29T18:06:32.997Z,98299.34
2022-10-29T18:09:01.433Z,98303.69
2022-10-29T18:11:28.710Z,98298.81
2022-10-29T18:13:57.269Z,98296.63
2022-10-29T18:16:26.492Z,98291.22
2022-10-29T18:19:02.230Z,98290.69
2022-10-29T18:21:31.041Z,98291.78
2022-10-29T18:23:58.384Z,98284.75
2022-10-29T18:26:28.498Z,98283.13
2022-10-29T18:28:56.202Z,98282.06
2022-10-29T18:31:24.753Z,98283.94
2022-10-29T18:33:51.876Z,98280.16
2022-10-29T18:36:19.110Z,98277.19
2022-10-29T18:38:49.832Z,98268.28
2022-10-29T18:41:17.632Z,98273.94
2022-10-29T18:43:46.269Z,98272.91
2022-10-29T18:46:13.995Z,98265.06
2022-10-29T18:48:43.451Z,98261.00
2022-10-29T18:51:18.938Z,98265.88
2022-10-29T18:53:46.292Z,98261.00
2022-10-29T18:56:15.697Z,98265.88
2022-10-29T18:58:43.139Z,98271.00
2022-10-29T19:01:13.398Z,98269.13
2022-10-29T19:03:41.162Z,98267.25
2022-10-29T19:06:11.877Z,98270.47
2022-10-29T19:08:41.805Z,98271.25
2022-10-29T19:11:11.765Z,98261.00
2022-10-29T19:13:39.011Z,98269.91
2022-10-29T19:16:08.417Z,98258.59
2022-10-29T19:18:38.482Z,98248.84
2022-10-29T19:21:07.375Z,98261.81
2022-10-29T19:23:35.077Z,98262.38
2022-10-29T19:26:03.520Z,98260.47
2022-10-29T19:28:30.882Z,98259.66
2022-10-29T19:31:01.750Z,98256.41
2022-10-29T19:33:28.971Z,98256.97
2022-10-29T19:35:57.758Z,98264.28
2022-10-29T19:38:25.175Z,98261.84
2022-10-29T19:40:52.626Z,98261.84
2022-10-29T19:43:19.726Z,98262.38
2022-10-29T19:45:46.819Z,98269.66
2022-10-29T19:48:13.935Z,98263.44
2022-10-29T19:50:41.273Z,98268.28
2022-10-29T19:53:09.750Z,98266.13
2022-10-29T19:55:39.561Z,98270.75
2022-10-29T19:58:07.227Z,98267.50
2022-10-29T20:00:34.301Z,98275.59
2022-10-29T20:03:01.379Z,98262.88
2022-10-29T20:05:28.494Z,98279.09
2022-10-29T20:07:56.061Z,98268.59
2022-10-29T20:10:24.703Z,98265.88
2022-10-29T20:12:51.817Z,98260.50
2022-10-29T20:15:18.896Z,98268.06
2022-10-29T20:17:46.173Z,98271.25
2022-10-29T20:20:17.280Z,98270.47
2022-10-29T20:22:44.779Z,98255.09
2022-10-29T20:25:12.469Z,98263.72
2022-10-29T20:27:40.919Z,98262.63
2022-10-29T20:30:10.406Z,98260.47
2022-10-29T20:32:37.546Z,98265.59
2022-10-29T20:35:05.321Z,98260.47
2022-10-29T20:37:32.417Z,98267.47
2022-10-29T20:39:59.518Z,98265.06
2022-10-29T20:42:26.681Z,98266.66
2022-10-29T20:44:55.125Z,98269.38
2022-10-29T20:47:22.223Z,98280.97
2022-10-29T20:49:49.285Z,98278.56
2022-10-29T20:52:16.418Z,98276.97
2022-10-29T20:54:43.577Z,98277.25
2022-10-29T20:57:10.650Z,98274.25
2022-10-29T20:59:37.795Z,98275.31
2022-10-29T21:02:06.445Z,98273.16
2022-10-29T21:04:33.670Z,98275.31
2022-10-29T21:07:00.738Z,98283.69
2022-10-29T21:09:27.833Z,98276.41
2022-10-29T21:11:54.904Z,98281.78
2022-10-29T21:14:21.989Z,98282.88
2022-10-29T21:16:49.111Z,98283.69
2022-10-29T21:19:17.738Z,98280.44
2022-10-29T21:21:44.851Z,98279.91
2022-10-29T21:24:12.006Z,98279.34
2022-10-29T21:26:39.104Z,98279.63
2022-10-29T21:29:06.176Z,98270.72
2022-10-29T21:31:33.303Z,98268.03
2022-10-29T21:34:00.530Z,98265.06
2022-10-29T21:36:29.010Z,98262.38
2022-10-29T21:38:56.203Z,98268.28
2022-10-29T21:41:23.356Z,98262.09
2022-10-29T21:43:50.430Z,98265.88
2022-10-29T21:46:17.533Z,98268.31
2022-10-29T21:48:44.639Z,98259.09
2022-10-29T21:51:13.728Z,98259.13
2022-10-29T21:53:42.285Z,98259.41
2022-10-29T21:56:12.347Z,98257.50
2022-10-29T21:58:39.584Z,98239.16
2022-10-29T22:01:08.561Z,98261.00
2022-10-29T22:03:38.062Z,98255.34
2022-10-29T22:06:07.345Z,98256.41
2022-10-29T22:08:34.689Z,98248.06
2022-10-29T22:11:03.704Z,98246.16
2022-10-29T22:13:31.871Z,98250.47
2022-10-29T22:15:59.235Z,98243.19
2022-10-29T22:18:26.772Z,98242.38
2022-10-29T22:21:03.372Z,98244.81
2022-10-29T22:23:30.496Z,98243.22
2022-10-29T22:25:57.591Z,98247.78
2022-10-29T22:28:27.416Z,98240.22
2022-10-29T22:30:58.357Z,98240.50
2022-10-29T22:33:25.473Z,98234.28
2022-10-29T22:35:52.589Z,98250.22
2022-10-29T22:38:19.714Z,98238.59
2022-10-29T22:40:47.007Z,98236.44
2022-10-29T22:43:15.333Z,98242.38
2022-10-29T22:45:45.445Z,98230.78
2022-10-29T22:48:12.537Z,98222.16
2022-10-29T22:50:39.718Z,98226.75
2022-10-29T22:53:06.889Z,98224.59
2022-10-29T22:55:33.986Z,98236.19
2022-10-29T22:58:01.083Z,98236.19
2022-10-29T23:00:28.164Z,98238.06
2022-10-29T23:02:56.915Z,98234.81
2022-10-29T23:05:24.250Z,98235.66
2022-10-29T23:07:51.344Z,98231.31
2022-10-29T23:10:18.431Z,98228.34
2022-10-29T23:12:45.539Z,98232.41
2022-10-29T23:15:12.634Z,98234.56
2022-10-29T23:17:39.721Z,98230.53
2022-10-29T23:20:08.818Z,98236.19
2022-10-29T23:22:35.926Z,98227.56
2022-10-29T23:25:03.265Z,98228.88
2022-10-29T23:27:30.383Z,98224.84
2022-10-29T23:29:57.459Z,98235.91
2022-10-29T23:32:24.551Z,98230.78
2022-10-29T23:34:51.692Z,98229.16
2022-10-29T23:37:20.139Z,98225.38
2022-10-29T23:39:47.208Z,98225.66
2022-10-29T23:42:14.299Z,98233.47
2022-10-29T23:44:41.383Z,98221.88
2022-10-29T23:47:08.552Z,98214.03
2022-10-29T23:49:35.642Z,98217.03
2022-10-29T23:52:02.751Z,98215.41
2022-10-29T23:54:31.187Z,98218.38
2022-10-29T23:56:58.317Z,98215.69
2022-10-29T23:59:25.436Z,98217.03
